sensor_id;sensor_type;location;lat;lon;timestamp;P1;durP1;ratioP1;P2;durP2;ratioP2
8628;SDS011;4352;49.404;11.092;2022-09-29T00:01:50;10.80;;;6.33;;
8628;SDS011;4352;49.404;11.092;2022-09-29T00:04:17;10.87;;;6.80;;
8628;SDS011;4352;49.404;11.092;2022-09-29T00:06:45;12.47;;;6.67;;
8628;SDS011;4352;49.404;11.092;2022-09-29T00:09:12;10.67;;;6.30;;
8628;SDS011;4352;49.404;11.092;2022-09-29T00:11:40;8.93;;;6.03;;
8628;SDS011;4352;49.404;11.092;2022-09-29T00:14:07;11.90;;;6.43;;
8628;SDS011;4352;49.404;11.092;2022-09-29T00:16:34;11.00;;;5.83;;
8628;SDS011;4352;49.404;11.092;2022-09-29T00:19:02;10.00;;;6.17;;
8628;SDS011;4352;49.404;11.092;2022-09-29T00:21:30;9.43;;;6.07;;
8628;SDS011;4352;49.404;11.092;2022-09-29T00:23:59;12.67;;;6.13;;
8628;SDS011;4352;49.404;11.092;2022-09-29T00:26:26;8.03;;;5.80;;
8628;SDS011;4352;49.404;11.092;2022-09-29T00:28:55;9.60;;;6.33;;
8628;SDS011;4352;49.404;11.092;2022-09-29T00:31:23;9.40;;;6.13;;
8628;SDS011;4352;49.404;11.092;2022-09-29T00:33:51;12.07;;;6.47;;
8628;SDS011;4352;49.404;11.092;2022-09-29T00:36:19;9.03;;;5.87;;
8628;SDS011;4352;49.404;11.092;2022-09-29T00:38:47;9.53;;;6.20;;
8628;SDS011;4352;49.404;11.092;2022-09-29T00:41:15;10.03;;;6.27;;
8628;SDS011;4352;49.404;11.092;2022-09-29T00:43:47;8.17;;;5.87;;
8628;SDS011;4352;49.404;11.092;2022-09-29T00:46:16;9.87;;;5.90;;
8628;SDS011;4352;49.404;11.092;2022-09-29T00:48:43;11.00;;;6.40;;
8628;SDS011;4352;49.404;11.092;2022-09-29T00:51:10;17.03;;;6.93;;
8628;SDS011;4352;49.404;11.092;2022-09-29T00:53:38;13.70;;;6.40;;
8628;SDS011;4352;49.404;11.092;2022-09-29T00:56:06;10.00;;;6.90;;
8628;SDS011;4352;49.404;11.092;2022-09-29T00:58:36;10.80;;;6.97;;
8628;SDS011;4352;49.404;11.092;2022-09-29T01:01:06;11.70;;;6.93;;
8628;SDS011;4352;49.404;11.092;2022-09-29T01:03:36;10.70;;;6.83;;
8628;SDS011;4352;49.404;11.092;2022-09-29T01:06:05;12.70;;;7.07;;
8628;SDS011;4352;49.404;11.092;2022-09-29T01:08:38;8.50;;;6.23;;
8628;SDS011;4352;49.404;11.092;2022-09-29T01:11:07;9.83;;;6.83;;
8628;SDS011;4352;49.404;11.092;2022-09-29T01:13:35;10.30;;;7.27;;
8628;SDS011;4352;49.404;11.092;2022-09-29T01:16:03;11.00;;;7.27;;
8628;SDS011;4352;49.404;11.092;2022-09-29T01:18:31;14.70;;;7.30;;
8628;SDS011;4352;49.404;11.092;2022-09-29T01:21:01;12.63;;;7.20;;
8628;SDS011;4352;49.404;11.092;2022-09-29T01:23:42;13.00;;;8.10;;
8628;SDS011;4352;49.404;11.092;2022-09-29T01:26:17;12.53;;;7.90;;
8628;SDS011;4352;49.404;11.092;2022-09-29T01:29:06;10.73;;;7.20;;
8628;SDS011;4352;49.404;11.092;2022-09-29T01:31:40;12.87;;;7.23;;
8628;SDS011;4352;49.404;11.092;2022-09-29T01:34:10;10.70;;;7.07;;
8628;SDS011;4352;49.404;11.092;2022-09-29T01:36:42;11.97;;;7.43;;
8628;SDS011;4352;49.404;11.092;2022-09-29T01:39:16;11.93;;;7.80;;
8628;SDS011;4352;49.404;11.092;2022-09-29T01:41:46;14.87;;;7.73;;
8628;SDS011;4352;49.404;11.092;2022-09-29T01:44:16;11.00;;;7.57;;
8628;SDS011;4352;49.404;11.092;2022-09-29T01:46:47;10.97;;;7.17;;
8628;SDS011;4352;49.404;11.092;2022-09-29T01:49:16;17.13;;;7.77;;
8628;SDS011;4352;49.404;11.092;2022-09-29T01:51:46;11.93;;;7.40;;
8628;SDS011;4352;49.404;11.092;2022-09-29T01:54:16;9.70;;;6.80;;
8628;SDS011;4352;49.404;11.092;2022-09-29T01:56:45;12.97;;;7.27;;
8628;SDS011;4352;49.404;11.092;2022-09-29T01:59:16;11.80;;;7.07;;
8628;SDS011;4352;49.404;11.092;2022-09-29T02:01:45;11.10;;;7.10;;
8628;SDS011;4352;49.404;11.092;2022-09-29T02:04:15;15.70;;;7.23;;
8628;SDS011;4352;49.404;11.092;2022-09-29T02:06:44;8.87;;;6.77;;
8628;SDS011;4352;49.404;11.092;2022-09-29T02:09:13;11.37;;;7.37;;
8628;SDS011;4352;49.404;11.092;2022-09-29T02:11:42;12.70;;;7.67;;
8628;SDS011;4352;49.404;11.092;2022-09-29T02:14:10;13.30;;;7.60;;
8628;SDS011;4352;49.404;11.092;2022-09-29T02:16:39;10.60;;;7.63;;
8628;SDS011;4352;49.404;11.092;2022-09-29T02:19:09;12.63;;;6.97;;
8628;SDS011;4352;49.404;11.092;2022-09-29T02:21:41;9.60;;;6.57;;
8628;SDS011;4352;49.404;11.092;2022-09-29T02:24:09;10.10;;;7.13;;
8628;SDS011;4352;49.404;11.092;2022-09-29T02:26:36;8.83;;;7.33;;
8628;SDS011;4352;49.404;11.092;2022-09-29T02:29:04;10.97;;;7.77;;
8628;SDS011;4352;49.404;11.092;2022-09-29T02:31:32;12.23;;;7.50;;
8628;SDS011;4352;49.404;11.092;2022-09-29T02:33:59;10.00;;;6.70;;
8628;SDS011;4352;49.404;11.092;2022-09-29T02:36:29;11.93;;;7.43;;
8628;SDS011;4352;49.404;11.092;2022-09-29T02:39:01;10.47;;;7.77;;
8628;SDS011;4352;49.404;11.092;2022-09-29T02:41:33;13.43;;;7.27;;
8628;SDS011;4352;49.404;11.092;2022-09-29T02:44:14;10.13;;;6.70;;
8628;SDS011;4352;49.404;11.092;2022-09-29T02:46:49;12.83;;;7.27;;
8628;SDS011;4352;49.404;11.092;2022-09-29T02:49:30;9.97;;;7.30;;
8628;SDS011;4352;49.404;11.092;2022-09-29T02:52:00;10.63;;;7.30;;
8628;SDS011;4352;49.404;11.092;2022-09-29T02:54:34;12.93;;;7.30;;
8628;SDS011;4352;49.404;11.092;2022-09-29T02:57:10;13.13;;;6.97;;
8628;SDS011;4352;49.404;11.092;2022-09-29T02:59:44;13.70;;;7.47;;
8628;SDS011;4352;49.404;11.092;2022-09-29T03:02:14;14.73;;;6.63;;
8628;SDS011;4352;49.404;11.092;2022-09-29T03:04:41;14.07;;;7.53;;
8628;SDS011;4352;49.404;11.092;2022-09-29T03:07:08;9.43;;;7.03;;
8628;SDS011;4352;49.404;11.092;2022-09-29T03:09:37;11.67;;;8.00;;
8628;SDS011;4352;49.404;11.092;2022-09-29T03:12:04;10.17;;;7.10;;
8628;SDS011;4352;49.404;11.092;2022-09-29T03:14:31;13.33;;;7.90;;
8628;SDS011;4352;49.404;11.092;2022-09-29T03:16:58;12.20;;;7.40;;
8628;SDS011;4352;49.404;11.092;2022-09-29T03:19:25;11.47;;;7.23;;
8628;SDS011;4352;49.404;11.092;2022-09-29T03:21:53;12.93;;;7.67;;
8628;SDS011;4352;49.404;11.092;2022-09-29T03:24:20;12.23;;;8.17;;
8628;SDS011;4352;49.404;11.092;2022-09-29T03:26:48;14.53;;;8.17;;
8628;SDS011;4352;49.404;11.092;2022-09-29T03:29:15;14.57;;;7.80;;
8628;SDS011;4352;49.404;11.092;2022-09-29T03:31:42;13.13;;;8.13;;
8628;SDS011;4352;49.404;11.092;2022-09-29T03:34:09;12.53;;;7.77;;
8628;SDS011;4352;49.404;11.092;2022-09-29T03:36:37;13.03;;;7.83;;
8628;SDS011;4352;49.404;11.092;2022-09-29T03:39:05;10.87;;;7.77;;
8628;SDS011;4352;49.404;11.092;2022-09-29T03:41:32;9.67;;;7.20;;
8628;SDS011;4352;49.404;11.092;2022-09-29T03:44:01;11.33;;;7.57;;
8628;SDS011;4352;49.404;11.092;2022-09-29T03:46:28;11.10;;;7.63;;
8628;SDS011;4352;49.404;11.092;2022-09-29T03:48:56;13.20;;;7.50;;
8628;SDS011;4352;49.404;11.092;2022-09-29T03:51:39;13.17;;;7.30;;
8628;SDS011;4352;49.404;11.092;2022-09-29T03:54:23;9.47;;;7.27;;
8628;SDS011;4352;49.404;11.092;2022-09-29T03:57:07;13.43;;;6.97;;
8628;SDS011;4352;49.404;11.092;2022-09-29T03:59:35;12.73;;;7.43;;
8628;SDS011;4352;49.404;11.092;2022-09-29T04:02:02;12.10;;;7.40;;
8628;SDS011;4352;49.404;11.092;2022-09-29T04:04:30;14.07;;;7.70;;
8628;SDS011;4352;49.404;11.092;2022-09-29T04:06:57;14.27;;;7.33;;
8628;SDS011;4352;49.404;11.092;2022-09-29T04:09:24;9.57;;;7.23;;
8628;SDS011;4352;49.404;11.092;2022-09-29T04:11:51;11.23;;;7.23;;
8628;SDS011;4352;49.404;11.092;2022-09-29T04:14:18;14.23;;;7.33;;
8628;SDS011;4352;49.404;11.092;2022-09-29T04:16:46;11.27;;;7.10;;
8628;SDS011;4352;49.404;11.092;2022-09-29T04:19:14;15.07;;;8.07;;
8628;SDS011;4352;49.404;11.092;2022-09-29T04:21:41;12.53;;;8.13;;
8628;SDS011;4352;49.404;11.092;2022-09-29T04:24:08;12.63;;;8.73;;
8628;SDS011;4352;49.404;11.092;2022-09-29T04:26:35;14.87;;;8.90;;
8628;SDS011;4352;49.404;11.092;2022-09-29T04:29:03;15.90;;;8.77;;
8628;SDS011;4352;49.404;11.092;2022-09-29T04:31:31;15.07;;;9.10;;
8628;SDS011;4352;49.404;11.092;2022-09-29T04:33:59;18.30;;;8.83;;
8628;SDS011;4352;49.404;11.092;2022-09-29T04:36:26;15.53;;;9.07;;
8628;SDS011;4352;49.404;11.092;2022-09-29T04:38:53;15.57;;;9.23;;
8628;SDS011;4352;49.404;11.092;2022-09-29T04:41:20;15.40;;;9.47;;
8628;SDS011;4352;49.404;11.092;2022-09-29T04:43:47;14.87;;;8.80;;
8628;SDS011;4352;49.404;11.092;2022-09-29T04:46:15;16.70;;;9.13;;
8628;SDS011;4352;49.404;11.092;2022-09-29T04:48:42;15.43;;;8.90;;
8628;SDS011;4352;49.404;11.092;2022-09-29T04:51:10;15.17;;;9.07;;
8628;SDS011;4352;49.404;11.092;2022-09-29T04:53:37;14.37;;;9.70;;
8628;SDS011;4352;49.404;11.092;2022-09-29T04:56:05;15.70;;;9.17;;
8628;SDS011;4352;49.404;11.092;2022-09-29T04:58:32;14.47;;;9.27;;
8628;SDS011;4352;49.404;11.092;2022-09-29T05:01:06;18.80;;;9.33;;
8628;SDS011;4352;49.404;11.092;2022-09-29T05:03:33;15.53;;;8.50;;
8628;SDS011;4352;49.404;11.092;2022-09-29T05:06:00;20.00;;;9.70;;
8628;SDS011;4352;49.404;11.092;2022-09-29T05:08:29;29.33;;;10.40;;
8628;SDS011;4352;49.404;11.092;2022-09-29T05:10:56;15.17;;;10.20;;
8628;SDS011;4352;49.404;11.092;2022-09-29T05:13:23;14.90;;;9.73;;
8628;SDS011;4352;49.404;11.092;2022-09-29T05:15:53;45.60;;;10.40;;
8628;SDS011;4352;49.404;11.092;2022-09-29T05:18:21;55.20;;;11.07;;
8628;SDS011;4352;49.404;11.092;2022-09-29T05:20:49;54.70;;;10.70;;
8628;SDS011;4352;49.404;11.092;2022-09-29T05:23:17;32.67;;;9.83;;
8628;SDS011;4352;49.404;11.092;2022-09-29T05:25:45;28.47;;;9.40;;
8628;SDS011;4352;49.404;11.092;2022-09-29T05:28:12;28.57;;;10.30;;
8628;SDS011;4352;49.404;11.092;2022-09-29T05:30:40;16.43;;;9.00;;
8628;SDS011;4352;49.404;11.092;2022-09-29T05:33:08;18.37;;;10.27;;
8628;SDS011;4352;49.404;11.092;2022-09-29T05:35:35;15.17;;;9.13;;
8628;SDS011;4352;49.404;11.092;2022-09-29T05:38:02;19.23;;;10.00;;
8628;SDS011;4352;49.404;11.092;2022-09-29T05:40:29;16.33;;;10.30;;
8628;SDS011;4352;49.404;11.092;2022-09-29T05:42:58;15.87;;;9.30;;
8628;SDS011;4352;49.404;11.092;2022-09-29T05:45:25;13.87;;;10.00;;
8628;SDS011;4352;49.404;11.092;2022-09-29T05:47:53;12.50;;;8.47;;
8628;SDS011;4352;49.404;11.092;2022-09-29T05:50:20;12.67;;;8.50;;
8628;SDS011;4352;49.404;11.092;2022-09-29T05:52:47;10.70;;;8.20;;
8628;SDS011;4352;49.404;11.092;2022-09-29T05:55:16;14.07;;;9.37;;
8628;SDS011;4352;49.404;11.092;2022-09-29T05:57:46;11.17;;;8.37;;
8628;SDS011;4352;49.404;11.092;2022-09-29T06:00:15;13.27;;;8.27;;
8628;SDS011;4352;49.404;11.092;2022-09-29T06:02:42;11.87;;;8.63;;
8628;SDS011;4352;49.404;11.092;2022-09-29T06:05:09;9.43;;;7.50;;
8628;SDS011;4352;49.404;11.092;2022-09-29T06:07:36;10.00;;;8.20;;
8628;SDS011;4352;49.404;11.092;2022-09-29T06:10:04;12.07;;;8.23;;
8628;SDS011;4352;49.404;11.092;2022-09-29T06:12:33;8.73;;;7.27;;
8628;SDS011;4352;49.404;11.092;2022-09-29T06:15:00;16.70;;;7.53;;
8628;SDS011;4352;49.404;11.092;2022-09-29T06:17:29;15.57;;;7.60;;
8628;SDS011;4352;49.404;11.092;2022-09-29T06:19:56;13.60;;;7.07;;
8628;SDS011;4352;49.404;11.092;2022-09-29T06:22:23;17.77;;;7.30;;
8628;SDS011;4352;49.404;11.092;2022-09-29T06:24:51;14.77;;;7.67;;
8628;SDS011;4352;49.404;11.092;2022-09-29T06:27:19;20.40;;;8.17;;
8628;SDS011;4352;49.404;11.092;2022-09-29T06:29:46;11.57;;;7.80;;
8628;SDS011;4352;49.404;11.092;2022-09-29T06:32:13;25.37;;;7.27;;
8628;SDS011;4352;49.404;11.092;2022-09-29T06:34:42;14.00;;;7.20;;
8628;SDS011;4352;49.404;11.092;2022-09-29T06:37:23;32.90;;;7.37;;
8628;SDS011;4352;49.404;11.092;2022-09-29T06:40:00;27.60;;;6.97;;
8628;SDS011;4352;49.404;11.092;2022-09-29T06:42:27;30.17;;;7.30;;
8628;SDS011;4352;49.404;11.092;2022-09-29T06:44:54;14.37;;;7.10;;
8628;SDS011;4352;49.404;11.092;2022-09-29T06:47:21;15.63;;;7.47;;
8628;SDS011;4352;49.404;11.092;2022-09-29T06:49:50;10.87;;;7.00;;
8628;SDS011;4352;49.404;11.092;2022-09-29T06:52:17;11.27;;;7.20;;
8628;SDS011;4352;49.404;11.092;2022-09-29T06:54:44;11.70;;;7.23;;
8628;SDS011;4352;49.404;11.092;2022-09-29T06:57:11;18.13;;;7.87;;
8628;SDS011;4352;49.404;11.092;2022-09-29T06:59:38;10.47;;;7.20;;
8628;SDS011;4352;49.404;11.092;2022-09-29T07:02:07;12.40;;;7.10;;
8628;SDS011;4352;49.404;11.092;2022-09-29T07:04:35;9.63;;;7.10;;
8628;SDS011;4352;49.404;11.092;2022-09-29T07:07:03;9.67;;;7.17;;
8628;SDS011;4352;49.404;11.092;2022-09-29T07:09:30;9.60;;;7.20;;
8628;SDS011;4352;49.404;11.092;2022-09-29T07:11:57;8.60;;;6.57;;
8628;SDS011;4352;49.404;11.092;2022-09-29T07:14:24;9.47;;;7.00;;
8628;SDS011;4352;49.404;11.092;2022-09-29T07:16:52;10.23;;;7.33;;
8628;SDS011;4352;49.404;11.092;2022-09-29T07:19:19;10.50;;;8.17;;
8628;SDS011;4352;49.404;11.092;2022-09-29T07:21:46;11.93;;;8.20;;
8628;SDS011;4352;49.404;11.092;2022-09-29T07:24:14;9.97;;;7.57;;
8628;SDS011;4352;49.404;11.092;2022-09-29T07:26:41;9.73;;;7.33;;
8628;SDS011;4352;49.404;11.092;2022-09-29T07:29:08;9.70;;;6.93;;
8628;SDS011;4352;49.404;11.092;2022-09-29T07:31:35;7.17;;;5.97;;
8628;SDS011;4352;49.404;11.092;2022-09-29T07:34:04;6.93;;;5.83;;
8628;SDS011;4352;49.404;11.092;2022-09-29T07:36:30;6.70;;;5.57;;
8628;SDS011;4352;49.404;11.092;2022-09-29T07:38:58;9.43;;;6.77;;
8628;SDS011;4352;49.404;11.092;2022-09-29T07:41:26;8.03;;;6.53;;
8628;SDS011;4352;49.404;11.092;2022-09-29T07:43:53;10.40;;;6.67;;
8628;SDS011;4352;49.404;11.092;2022-09-29T07:46:19;12.20;;;6.73;;
8628;SDS011;4352;49.404;11.092;2022-09-29T07:48:47;8.40;;;6.17;;
8628;SDS011;4352;49.404;11.092;2022-09-29T07:51:15;9.47;;;7.10;;
8628;SDS011;4352;49.404;11.092;2022-09-29T07:53:42;12.07;;;7.30;;
8628;SDS011;4352;49.404;11.092;2022-09-29T07:56:10;10.33;;;6.87;;
8628;SDS011;4352;49.404;11.092;2022-09-29T07:58:39;6.63;;;5.93;;
8628;SDS011;4352;49.404;11.092;2022-09-29T08:01:07;9.03;;;6.63;;
8628;SDS011;4352;49.404;11.092;2022-09-29T08:03:36;6.80;;;6.00;;
8628;SDS011;4352;49.404;11.092;2022-09-29T08:06:04;8.83;;;6.17;;
8628;SDS011;4352;49.404;11.092;2022-09-29T08:08:31;6.83;;;5.60;;
8628;SDS011;4352;49.404;11.092;2022-09-29T08:11:01;7.57;;;6.00;;
8628;SDS011;4352;49.404;11.092;2022-09-29T08:13:28;7.10;;;6.10;;
8628;SDS011;4352;49.404;11.092;2022-09-29T08:15:58;8.70;;;6.07;;
8628;SDS011;4352;49.404;11.092;2022-09-29T08:18:25;7.20;;;6.17;;
8628;SDS011;4352;49.404;11.092;2022-09-29T08:20:52;8.00;;;5.37;;
8628;SDS011;4352;49.404;11.092;2022-09-29T08:23:19;11.80;;;6.30;;
8628;SDS011;4352;49.404;11.092;2022-09-29T08:25:47;6.83;;;6.13;;
8628;SDS011;4352;49.404;11.092;2022-09-29T08:28:14;5.57;;;4.90;;
8628;SDS011;4352;49.404;11.092;2022-09-29T08:30:41;4.90;;;4.40;;
8628;SDS011;4352;49.404;11.092;2022-09-29T08:33:09;4.73;;;4.23;;
8628;SDS011;4352;49.404;11.092;2022-09-29T08:35:39;4.03;;;3.63;;
8628;SDS011;4352;49.404;11.092;2022-09-29T08:38:06;6.43;;;3.20;;
8628;SDS011;4352;49.404;11.092;2022-09-29T08:40:33;3.70;;;3.20;;
8628;SDS011;4352;49.404;11.092;2022-09-29T08:43:04;5.03;;;3.60;;
8628;SDS011;4352;49.404;11.092;2022-09-29T08:45:35;8.57;;;4.70;;
8628;SDS011;4352;49.404;11.092;2022-09-29T08:48:04;5.43;;;4.10;;
8628;SDS011;4352;49.404;11.092;2022-09-29T08:50:34;5.97;;;3.77;;
8628;SDS011;4352;49.404;11.092;2022-09-29T08:53:04;5.47;;;3.70;;
8628;SDS011;4352;49.404;11.092;2022-09-29T08:55:34;4.77;;;3.90;;
8628;SDS011;4352;49.404;11.092;2022-09-29T08:58:06;4.50;;;4.10;;
8628;SDS011;4352;49.404;11.092;2022-09-29T09:00:37;4.90;;;3.60;;
8628;SDS011;4352;49.404;11.092;2022-09-29T09:03:12;4.27;;;3.80;;
8628;SDS011;4352;49.404;11.092;2022-09-29T09:05:45;5.33;;;3.73;;
8628;SDS011;4352;49.404;11.092;2022-09-29T09:08:17;4.47;;;3.80;;
8628;SDS011;4352;49.404;11.092;2022-09-29T09:10:49;6.80;;;4.37;;
8628;SDS011;4352;49.404;11.092;2022-09-29T09:13:22;6.37;;;3.77;;
8628;SDS011;4352;49.404;11.092;2022-09-29T09:16:05;5.87;;;3.53;;
8628;SDS011;4352;49.404;11.092;2022-09-29T09:18:40;3.60;;;3.30;;
8628;SDS011;4352;49.404;11.092;2022-09-29T09:21:13;5.83;;;3.80;;
8628;SDS011;4352;49.404;11.092;2022-09-29T09:23:46;4.83;;;3.60;;
8628;SDS011;4352;49.404;11.092;2022-09-29T09:26:15;5.87;;;3.90;;
8628;SDS011;4352;49.404;11.092;2022-09-29T09:28:44;3.67;;;3.37;;
8628;SDS011;4352;49.404;11.092;2022-09-29T09:31:15;6.33;;;4.10;;
8628;SDS011;4352;49.404;11.092;2022-09-29T09:33:43;5.30;;;3.37;;
8628;SDS011;4352;49.404;11.092;2022-09-29T09:36:15;5.53;;;3.10;;
8628;SDS011;4352;49.404;11.092;2022-09-29T09:38:44;5.00;;;3.70;;
8628;SDS011;4352;49.404;11.092;2022-09-29T09:41:14;7.40;;;3.43;;
8628;SDS011;4352;49.404;11.092;2022-09-29T09:43:43;6.57;;;3.87;;
8628;SDS011;4352;49.404;11.092;2022-09-29T09:46:12;6.33;;;3.70;;
8628;SDS011;4352;49.404;11.092;2022-09-29T09:48:42;6.47;;;3.70;;
8628;SDS011;4352;49.404;11.092;2022-09-29T09:51:20;6.67;;;4.20;;
8628;SDS011;4352;49.404;11.092;2022-09-29T09:53:50;8.10;;;3.50;;
8628;SDS011;4352;49.404;11.092;2022-09-29T09:56:21;7.80;;;4.07;;
8628;SDS011;4352;49.404;11.092;2022-09-29T09:59:00;7.50;;;4.20;;
8628;SDS011;4352;49.404;11.092;2022-09-29T10:01:28;6.07;;;3.73;;
8628;SDS011;4352;49.404;11.092;2022-09-29T10:03:55;6.07;;;4.20;;
8628;SDS011;4352;49.404;11.092;2022-09-29T10:06:26;11.07;;;4.73;;
8628;SDS011;4352;49.404;11.092;2022-09-29T10:08:53;5.90;;;4.33;;
8628;SDS011;4352;49.404;11.092;2022-09-29T10:11:22;5.50;;;3.97;;
8628;SDS011;4352;49.404;11.092;2022-09-29T10:13:51;5.70;;;4.07;;
8628;SDS011;4352;49.404;11.092;2022-09-29T10:16:21;6.40;;;3.80;;
8628;SDS011;4352;49.404;11.092;2022-09-29T10:18:52;6.90;;;4.00;;
8628;SDS011;4352;49.404;11.092;2022-09-29T10:21:20;5.80;;;4.07;;
8628;SDS011;4352;49.404;11.092;2022-09-29T10:23:52;5.67;;;4.10;;
8628;SDS011;4352;49.404;11.092;2022-09-29T10:26:20;6.47;;;3.90;;
8628;SDS011;4352;49.404;11.092;2022-09-29T10:28:50;8.43;;;4.17;;
8628;SDS011;4352;49.404;11.092;2022-09-29T10:31:20;7.77;;;4.87;;
8628;SDS011;4352;49.404;11.092;2022-09-29T10:33:48;6.67;;;4.90;;
8628;SDS011;4352;49.404;11.092;2022-09-29T10:36:16;5.60;;;3.80;;
8628;SDS011;4352;49.404;11.092;2022-09-29T10:38:45;5.10;;;3.40;;
8628;SDS011;4352;49.404;11.092;2022-09-29T10:41:14;5.80;;;4.03;;
8628;SDS011;4352;49.404;11.092;2022-09-29T10:43:44;6.20;;;3.70;;
8628;SDS011;4352;49.404;11.092;2022-09-29T10:49:06;5.50;;;3.60;;
8628;SDS011;4352;49.404;11.092;2022-09-29T10:51:35;5.67;;;2.90;;
8628;SDS011;4352;49.404;11.092;2022-09-29T10:54:05;5.43;;;3.30;;
8628;SDS011;4352;49.404;11.092;2022-09-29T10:56:34;4.73;;;2.80;;
8628;SDS011;4352;49.404;11.092;2022-09-29T10:59:02;6.27;;;3.47;;
8628;SDS011;4352;49.404;11.092;2022-09-29T11:01:30;7.00;;;3.07;;
8628;SDS011;4352;49.404;11.092;2022-09-29T11:03:59;7.00;;;3.03;;
8628;SDS011;4352;49.404;11.092;2022-09-29T11:06:27;4.23;;;2.83;;
8628;SDS011;4352;49.404;11.092;2022-09-29T11:08:56;4.83;;;2.80;;
8628;SDS011;4352;49.404;11.092;2022-09-29T11:11:25;5.07;;;2.80;;
8628;SDS011;4352;49.404;11.092;2022-09-29T11:13:54;4.23;;;2.60;;
8628;SDS011;4352;49.404;11.092;2022-09-29T11:16:25;7.13;;;3.17;;
8628;SDS011;4352;49.404;11.092;2022-09-29T11:18:53;6.47;;;2.97;;
8628;SDS011;4352;49.404;11.092;2022-09-29T11:21:30;5.73;;;2.87;;
8628;SDS011;4352;49.404;11.092;2022-09-29T11:24:04;5.80;;;2.40;;
8628;SDS011;4352;49.404;11.092;2022-09-29T11:26:32;6.87;;;2.93;;
8628;SDS011;4352;49.404;11.092;2022-09-29T11:29:12;13.70;;;3.63;;
8628;SDS011;4352;49.404;11.092;2022-09-29T11:31:47;4.30;;;3.07;;
8628;SDS011;4352;49.404;11.092;2022-09-29T11:34:27;5.97;;;3.73;;
8628;SDS011;4352;49.404;11.092;2022-09-29T11:36:59;6.17;;;3.03;;
8628;SDS011;4352;49.404;11.092;2022-09-29T11:39:34;5.77;;;3.40;;
8628;SDS011;4352;49.404;11.092;2022-09-29T11:42:12;7.43;;;3.90;;
8628;SDS011;4352;49.404;11.092;2022-09-29T11:44:54;5.90;;;3.83;;
8628;SDS011;4352;49.404;11.092;2022-09-29T11:50:21;6.67;;;3.10;;
8628;SDS011;4352;49.404;11.092;2022-09-29T11:55:39;4.50;;;3.57;;
8628;SDS011;4352;49.404;11.092;2022-09-29T11:58:14;6.63;;;3.40;;
8628;SDS011;4352;49.404;11.092;2022-09-29T12:00:54;4.60;;;3.70;;
8628;SDS011;4352;49.404;11.092;2022-09-29T12:03:29;6.07;;;3.57;;
8628;SDS011;4352;49.404;11.092;2022-09-29T12:06:00;4.97;;;3.63;;
8628;SDS011;4352;49.404;11.092;2022-09-29T12:08:37;6.40;;;3.77;;
8628;SDS011;4352;49.404;11.092;2022-09-29T12:11:09;6.73;;;3.93;;
8628;SDS011;4352;49.404;11.092;2022-09-29T12:13:42;8.50;;;3.77;;
8628;SDS011;4352;49.404;11.092;2022-09-29T12:16:13;5.97;;;3.67;;
8628;SDS011;4352;49.404;11.092;2022-09-29T12:18:44;5.27;;;3.73;;
8628;SDS011;4352;49.404;11.092;2022-09-29T12:21:13;7.33;;;4.10;;
8628;SDS011;4352;49.404;11.092;2022-09-29T12:23:41;6.00;;;3.77;;
8628;SDS011;4352;49.404;11.092;2022-09-29T12:26:10;4.80;;;3.83;;
8628;SDS011;4352;49.404;11.092;2022-09-29T12:28:39;7.37;;;3.30;;
8628;SDS011;4352;49.404;11.092;2022-09-29T12:31:08;6.83;;;4.00;;
8628;SDS011;4352;49.404;11.092;2022-09-29T12:33:39;5.47;;;3.43;;
8628;SDS011;4352;49.404;11.092;2022-09-29T12:36:12;4.10;;;3.17;;
8628;SDS011;4352;49.404;11.092;2022-09-29T12:38:59;5.63;;;3.30;;
8628;SDS011;4352;49.404;11.092;2022-09-29T12:41:29;5.60;;;3.37;;
8628;SDS011;4352;49.404;11.092;2022-09-29T12:43:59;5.63;;;3.33;;
8628;SDS011;4352;49.404;11.092;2022-09-29T12:46:31;4.87;;;3.27;;
8628;SDS011;4352;49.404;11.092;2022-09-29T12:49:03;5.80;;;3.50;;
8628;SDS011;4352;49.404;11.092;2022-09-29T12:51:36;5.73;;;3.87;;
8628;SDS011;4352;49.404;11.092;2022-09-29T12:54:07;5.27;;;3.40;;
8628;SDS011;4352;49.404;11.092;2022-09-29T12:56:39;6.10;;;3.50;;
8628;SDS011;4352;49.404;11.092;2022-09-29T12:59:08;6.73;;;3.80;;
8628;SDS011;4352;49.404;11.092;2022-09-29T13:01:38;7.10;;;3.20;;
8628;SDS011;4352;49.404;11.092;2022-09-29T13:04:15;4.70;;;3.43;;
8628;SDS011;4352;49.404;11.092;2022-09-29T13:09:31;4.67;;;3.90;;
8628;SDS011;4352;49.404;11.092;2022-09-29T13:12:13;7.63;;;3.73;;
8628;SDS011;4352;49.404;11.092;2022-09-29T13:14:46;5.80;;;3.30;;
8628;SDS011;4352;49.404;11.092;2022-09-29T13:17:23;10.53;;;3.17;;
8628;SDS011;4352;49.404;11.092;2022-09-29T13:19:59;6.53;;;3.70;;
8628;SDS011;4352;49.404;11.092;2022-09-29T13:22:32;7.13;;;4.07;;
8628;SDS011;4352;49.404;11.092;2022-09-29T13:25:04;5.83;;;3.60;;
8628;SDS011;4352;49.404;11.092;2022-09-29T13:27:37;4.90;;;3.50;;
8628;SDS011;4352;49.404;11.092;2022-09-29T13:30:11;7.07;;;3.73;;
8628;SDS011;4352;49.404;11.092;2022-09-29T13:32:39;5.47;;;3.00;;
8628;SDS011;4352;49.404;11.092;2022-09-29T13:35:11;5.00;;;3.07;;
8628;SDS011;4352;49.404;11.092;2022-09-29T13:37:44;6.00;;;3.30;;
8628;SDS011;4352;49.404;11.092;2022-09-29T13:40:16;3.93;;;2.60;;
8628;SDS011;4352;49.404;11.092;2022-09-29T13:42:45;6.20;;;3.00;;
8628;SDS011;4352;49.404;11.092;2022-09-29T13:45:17;5.73;;;3.70;;
8628;SDS011;4352;49.404;11.092;2022-09-29T13:48:02;7.23;;;3.40;;
8628;SDS011;4352;49.404;11.092;2022-09-29T13:50:50;3.60;;;2.67;;
8628;SDS011;4352;49.404;11.092;2022-09-29T13:53:27;6.87;;;3.10;;
8628;SDS011;4352;49.404;11.092;2022-09-29T13:56:07;4.40;;;2.63;;
8628;SDS011;4352;49.404;11.092;2022-09-29T13:58:36;5.53;;;3.10;;
8628;SDS011;4352;49.404;11.092;2022-09-29T14:01:04;3.73;;;3.00;;
8628;SDS011;4352;49.404;11.092;2022-09-29T14:03:33;6.07;;;3.53;;
8628;SDS011;4352;49.404;11.092;2022-09-29T14:06:04;5.47;;;3.10;;
8628;SDS011;4352;49.404;11.092;2022-09-29T14:08:35;6.17;;;3.83;;
8628;SDS011;4352;49.404;11.092;2022-09-29T14:11:13;5.63;;;3.37;;
8628;SDS011;4352;49.404;11.092;2022-09-29T14:13:43;7.87;;;3.60;;
8628;SDS011;4352;49.404;11.092;2022-09-29T14:16:15;4.47;;;3.30;;
8628;SDS011;4352;49.404;11.092;2022-09-29T14:18:44;6.27;;;3.40;;
8628;SDS011;4352;49.404;11.092;2022-09-29T14:24:01;5.50;;;3.40;;
8628;SDS011;4352;49.404;11.092;2022-09-29T14:26:41;5.20;;;3.47;;
8628;SDS011;4352;49.404;11.092;2022-09-29T14:29:09;6.37;;;3.80;;
8628;SDS011;4352;49.404;11.092;2022-09-29T14:31:39;5.97;;;3.67;;
8628;SDS011;4352;49.404;11.092;2022-09-29T14:34:07;5.43;;;4.10;;
8628;SDS011;4352;49.404;11.092;2022-09-29T14:36:38;5.67;;;3.60;;
8628;SDS011;4352;49.404;11.092;2022-09-29T14:39:09;6.00;;;4.20;;
8628;SDS011;4352;49.404;11.092;2022-09-29T14:41:39;6.67;;;3.30;;
8628;SDS011;4352;49.404;11.092;2022-09-29T14:44:06;5.97;;;4.10;;
8628;SDS011;4352;49.404;11.092;2022-09-29T14:46:41;7.63;;;3.53;;
8628;SDS011;4352;49.404;11.092;2022-09-29T14:49:33;6.17;;;3.73;;
8628;SDS011;4352;49.404;11.092;2022-09-29T14:52:26;8.90;;;3.40;;
8628;SDS011;4352;49.404;11.092;2022-09-29T14:54:58;11.00;;;6.00;;
8628;SDS011;4352;49.404;11.092;2022-09-29T14:57:37;5.30;;;3.23;;
8628;SDS011;4352;49.404;11.092;2022-09-29T15:00:10;6.83;;;3.43;;
8628;SDS011;4352;49.404;11.092;2022-09-29T15:02:40;6.07;;;3.20;;
8628;SDS011;4352;49.404;11.092;2022-09-29T15:05:23;5.87;;;3.53;;
8628;SDS011;4352;49.404;11.092;2022-09-29T15:07:54;5.60;;;3.43;;
8628;SDS011;4352;49.404;11.092;2022-09-29T15:10:23;7.57;;;4.90;;
8628;SDS011;4352;49.404;11.092;2022-09-29T15:12:51;10.17;;;6.10;;
8628;SDS011;4352;49.404;11.092;2022-09-29T15:15:31;19.87;;;10.87;;
8628;SDS011;4352;49.404;11.092;2022-09-29T15:18:01;12.50;;;5.50;;
8628;SDS011;4352;49.404;11.092;2022-09-29T15:20:32;10.33;;;5.60;;
8628;SDS011;4352;49.404;11.092;2022-09-29T15:23:07;5.60;;;3.50;;
8628;SDS011;4352;49.404;11.092;2022-09-29T15:25:37;4.23;;;3.60;;
8628;SDS011;4352;49.404;11.092;2022-09-29T15:28:08;6.07;;;3.27;;